AirNav   Everest Fuels
 
 926 users online  

8PN5 Helfrick Heliport
Elysburg, Pennsylvania, USA

GOING TO ELYSBURG?


FAA INFORMATION EFFECTIVE 02 JANUARY 2020

Location

FAA Identifier: 8PN5
Lat/Long: 40-50-00.3090N 076-32-58.8430W
40-50.005150N 076-32.980717W
40.8334192,-76.5496786
(estimated)
Elevation: 1000 ft. / 305 m (estimated)
Variation: 11W (1985)
From city: 2 miles SE of ELYSBURG, PA
Time zone: UTC -5 (UTC -4 during Daylight Saving Time)
Zip code: 17824

Heliport Operations

Heliport use: Private use. Permission required prior to landing
Activation date: 01/1978
Control tower: no
ARTCC: NEW YORK CENTER
FSS: WILLIAMSPORT FLIGHT SERVICE STATION
Attendance: UNATNDD
Wind indicator: yes
Segmented circle: yes

Heliport Communications

WX AWOS-3 at N79 (0.2 nm NW): 119.175 (570-672-0389)
WX AWOS-3 at 79PN (8 nm N): 118.075 (570-271-8192)
WX AWOS-3 at ZER (11 nm SE): 127.575 (570-544-2778)
WX ASOS at SEG (14 nm W): 123.975 (570-374-4099)

Nearby radio navigation aids

VOR radial/distance  VOR name  Freq  Var
MIPr164/12.5MILTON VORTAC109.2009W
SEGr088/15.4SELINSGROVE VOR/DME110.4008W
RAVr019/17.0RAVINE VORTAC114.6011W
FQMr170/32.0WILLIAMSPORT VOR/DME114.4009W
HARr047/39.7HARRISBURG VORTAC112.5010W

 
NDB name  Hdg/Dist  Freq  Var  ID
BELLGROVE010/23.932810WBZJ -... --.. .---

Heliport Services

Runway Information

Helipad H1

Dimensions: 50 x 50 ft. / 15 x 15 m
Surface: concrete, in fair condition
Latitude: 40-50.005150N
Longitude: 076-32.980717W
Elevation: 1000.0 ft.
Traffic pattern: leftleft
Markings: none, in fair condition

Heliport Ownership and Management from official FAA records

Ownership: Privately-owned
Owner: EDWARD W. HELFRICK
459 YUCHA RD
ELYSBURG, PA 17824
Phone 717-672-2962

Heliport Operational Statistics

Aircraft based on the field: 1
Helicopters: 1
    

Additional Remarks

FOR CD CTC HARRISBURG APCH AT 800-932-0712.

Instrument Procedures

There are no published instrument procedures at 8PN5.

Some nearby airports with instrument procedures:

N79 - Northumberland County Airport (0 nm NW)
8N8 - Danville Airport (8 nm NW)
KZER - Schuylkill County/Joe Zerbey Airport (11 nm SE)
N13 - Bloomsburg Municipal Airport (11 nm NE)
KSEG - Penn Valley Airport (14 nm W)
74N - Bendigo Airport (16 nm S)
 
Loc | Ops | Rwys | IFR | FBO | Links
Com | Nav | Svcs | Stats | Notes
Area around 8PN5 (Helfrick Heliport)
 
Road maps at: MapQuest Bing Google
 
Aerial photo
No photo
 
Sectional chart

 
Airport distance calculator
Flying to Helfrick Heliport? Find the distance to fly.

From to 8PN5

Sunrise and sunset
Times for 21-Jan-2020
 Local
(UTC-5)
 Zulu
(UTC)
Morning civil twilight06:5711:57
Sunrise07:2612:26
Sunset17:0922:09
Evening civil twilight17:3922:39

Current date and time
Zulu (UTC)  22-Jan-2020 03:15:08
Local (UTC-5)  21-Jan-2020 22:15:08
 
METAR
KSEG 
14nm W 
220253Z AUTO 00000KT 10SM CLR M04/M10 A3048 RMK AO2 SLP328 T10391100 50004
KMUI 
25nm S 
220256Z AUTO 28005KT 10SM CLR M03/M10 A3046 RMK AO2 SLP325 T10261104 50002
KHZL 
27nm E 
220255Z AUTO 00000KT 10SM CLR M06/M11 A3040 RMK AO2
TAF
KMUI 
25nm S 
211900Z 2119/2301 31009KT 9999 SCT035 QNH3042INS BECMG 2122/2123 VRB06KT 9999 FEW016 QNH3045INS BECMG 2203/2204 VRB06KT 9999 SKC QNH3040INS TX00/2219Z TNM09/2213Z LAST NO AMDS AFT 2205 NEXT 2211
KIPT 
30nm NW 
212151Z 2122/2218 26008KT P6SM BKN045 FM212300 00000KT P6SM BKN250
NOTAMs
Click for the latest NOTAMs
NOTAMs are issued by the DoD/FAA and will open in a separate window not controlled by AirNav.

 

 
 

Would you like to see your business listed on this page?

 If your business provides an interesting product or service to pilots, flight crews, aircraft, or users of the Helfrick Heliport, you should consider listing it here.  To start the listing process, click on the button below
 
Add a business
 

Other Pages about Helfrick Heliport

Update a link
 
Copyright © AirNav, LLC. All rights reserved. Privacy Policy  Contact